createdAt,value
2023-03-15T00:01:15.040Z,19.17
2023-03-15T00:03:43.366Z,20.70
2023-03-15T00:06:12.044Z,19.00
2023-03-15T00:08:41.122Z,19.30
2023-03-15T00:11:08.702Z,20.70
2023-03-15T00:13:36.664Z,20.17
2023-03-15T00:16:04.914Z,20.10
2023-03-15T00:18:33.517Z,19.13
2023-03-15T00:21:01.099Z,19.20
2023-03-15T00:23:28.705Z,19.43
2023-03-15T00:25:57.959Z,19.80
2023-03-15T00:28:25.554Z,20.70
2023-03-15T00:31:04.112Z,19.70
2023-03-15T00:33:34.809Z,18.93
2023-03-15T00:36:05.976Z,18.20
2023-03-15T00:38:33.729Z,17.83
2023-03-15T00:41:07.155Z,18.73
2023-03-15T00:43:35.253Z,16.20
2023-03-15T00:46:03.640Z,16.70
2023-03-15T00:48:31.495Z,16.33
2023-03-15T00:51:07.000Z,16.00
2023-03-15T00:53:35.707Z,18.43
2023-03-15T00:56:10.110Z,16.13
2023-03-15T00:58:37.783Z,15.83
2023-03-15T01:01:07.669Z,16.20
2023-03-15T01:03:36.968Z,15.97
2023-03-15T01:06:09.103Z,16.60
2023-03-15T01:08:36.934Z,17.40
2023-03-15T01:11:05.741Z,16.50
2023-03-15T01:13:35.163Z,16.13
2023-03-15T01:16:02.860Z,16.50
2023-03-15T01:18:31.031Z,18.23
2023-03-15T01:20:59.022Z,17.43
2023-03-15T01:23:26.865Z,16.83
2023-03-15T01:25:54.839Z,17.20
2023-03-15T01:28:22.398Z,16.33
2023-03-15T01:30:51.979Z,16.30
2023-03-15T01:33:19.804Z,17.40
2023-03-15T01:35:47.525Z,15.60
2023-03-15T01:38:15.605Z,16.33
2023-03-15T01:40:44.126Z,20.63
2023-03-15T01:43:18.263Z,15.63
2023-03-15T01:46:23.934Z,15.37
2023-03-15T01:48:57.186Z,18.50
2023-03-15T01:51:29.549Z,21.10
2023-03-15T01:54:02.081Z,34.83
2023-03-15T01:56:31.371Z,48.13
2023-03-15T01:59:02.138Z,44.53
2023-03-15T02:01:32.209Z,44.00
2023-03-15T02:04:04.450Z,48.27
2023-03-15T02:06:34.872Z,55.33
2023-03-15T02:09:06.816Z,53.33
2023-03-15T02:11:36.515Z,58.53
2023-03-15T02:14:07.167Z,60.80
2023-03-15T02:16:36.626Z,66.57
2023-03-15T02:19:05.852Z,68.77
2023-03-15T02:21:42.584Z,70.50
2023-03-15T02:24:22.068Z,69.53
2023-03-15T02:26:52.680Z,67.97
2023-03-15T02:29:24.369Z,67.73
2023-03-15T02:31:53.129Z,61.53
2023-03-15T02:34:25.439Z,61.97
2023-03-15T02:36:54.700Z,58.73
2023-03-15T02:39:23.446Z,52.37
2023-03-15T02:41:54.737Z,43.63
2023-03-15T02:44:30.174Z,37.47
2023-03-15T02:47:03.769Z,36.43
2023-03-15T02:49:36.247Z,32.70
2023-03-15T02:52:04.448Z,30.10
2023-03-15T02:54:34.294Z,28.53
2023-03-15T02:57:02.140Z,27.67
2023-03-15T02:59:31.286Z,30.97
2023-03-15T03:01:58.873Z,29.20
2023-03-15T03:04:26.479Z,29.07
2023-03-15T03:06:54.396Z,27.83
2023-03-15T03:09:22.108Z,26.17
2023-03-15T03:11:50.202Z,27.07
2023-03-15T03:14:17.827Z,27.27
2023-03-15T03:16:46.879Z,26.90
2023-03-15T03:19:14.562Z,26.40
2023-03-15T03:21:44.357Z,26.43
2023-03-15T03:24:16.091Z,28.07
2023-03-15T03:26:46.164Z,29.73
2023-03-15T03:29:16.432Z,28.87
2023-03-15T03:31:45.885Z,28.50
2023-03-15T03:34:15.498Z,31.60
2023-03-15T03:36:43.716Z,29.87
2023-03-15T03:39:11.704Z,30.50
2023-03-15T03:41:39.285Z,29.50
2023-03-15T03:44:07.372Z,28.10
2023-03-15T03:46:36.226Z,29.50
2023-03-15T03:49:05.209Z,28.97
2023-03-15T03:51:34.013Z,28.43
2023-03-15T03:54:01.803Z,28.23
2023-03-15T03:56:29.522Z,28.27
2023-03-15T03:58:57.314Z,27.03
2023-03-15T04:01:25.256Z,28.23
2023-03-15T04:03:52.813Z,28.80
2023-03-15T04:06:22.542Z,29.20
2023-03-15T04:08:50.422Z,26.23
2023-03-15T04:11:18.466Z,27.40
2023-03-15T04:13:46.174Z,28.50
2023-03-15T04:16:14.548Z,28.60
2023-03-15T04:18:42.283Z,27.10
2023-03-15T04:21:10.760Z,26.93
2023-03-15T04:23:40.193Z,29.43
2023-03-15T04:26:07.806Z,28.00
2023-03-15T04:28:38.027Z,30.60
2023-03-15T04:31:10.508Z,32.10
2023-03-15T04:33:38.178Z,32.10
2023-03-15T04:36:06.127Z,32.60
2023-03-15T04:38:35.434Z,34.53
2023-03-15T04:41:10.817Z,33.83
2023-03-15T04:43:38.444Z,35.23
2023-03-15T04:46:06.230Z,31.70
2023-03-15T04:48:33.839Z,31.40
2023-03-15T04:51:01.636Z,29.87
2023-03-15T04:53:29.433Z,30.07
2023-03-15T04:55:57.361Z,31.73
2023-03-15T04:58:26.363Z,32.93
2023-03-15T05:00:54.260Z,32.20
2023-03-15T05:03:22.183Z,32.40
2023-03-15T05:05:49.764Z,35.40
2023-03-15T05:08:17.387Z,35.13
2023-03-15T05:10:45.172Z,39.63
2023-03-15T05:13:13.150Z,42.33
2023-03-15T05:15:42.066Z,46.33
2023-03-15T05:18:09.644Z,48.33
2023-03-15T05:20:37.223Z,53.53
2023-03-15T05:23:05.317Z,58.70
2023-03-15T05:25:34.009Z,71.03
2023-03-15T05:28:04.482Z,91.60
2023-03-15T05:30:32.435Z,97.50
2023-03-15T05:33:04.684Z,93.67
2023-03-15T05:35:32.503Z,71.63
2023-03-15T05:38:00.540Z,62.70
2023-03-15T05:40:29.965Z,58.93
2023-03-15T05:42:57.720Z,57.30
2023-03-15T05:45:25.342Z,47.50
2023-03-15T05:47:52.953Z,46.60
2023-03-15T05:50:21.901Z,46.53
2023-03-15T05:52:51.602Z,46.70
2023-03-15T05:55:19.188Z,49.30
2023-03-15T05:57:47.145Z,50.33
2023-03-15T06:00:16.371Z,53.93
2023-03-15T06:02:45.070Z,51.67
2023-03-15T06:05:13.195Z,52.27
2023-03-15T06:07:42.440Z,56.03
2023-03-15T06:10:11.434Z,56.83
2023-03-15T06:12:39.125Z,58.07
2023-03-15T06:15:08.255Z,58.13
2023-03-15T06:17:36.129Z,59.40
2023-03-15T06:20:04.854Z,65.77
2023-03-15T06:22:33.074Z,73.53
2023-03-15T06:25:03.455Z,78.40
2023-03-15T06:27:31.108Z,91.17
2023-03-15T06:29:59.405Z,92.60
2023-03-15T06:32:27.251Z,84.50
2023-03-15T06:34:54.888Z,81.70
2023-03-15T06:37:34.574Z,82.60
2023-03-15T06:40:07.228Z,70.83
2023-03-15T06:42:35.127Z,66.03
2023-03-15T06:45:03.402Z,60.57
2023-03-15T06:47:31.081Z,51.27
2023-03-15T06:49:58.705Z,53.93
2023-03-15T06:52:26.348Z,59.10
2023-03-15T06:54:53.967Z,60.13
2023-03-15T06:57:23.101Z,59.27
2023-03-15T06:59:50.793Z,66.07
2023-03-15T07:02:19.966Z,67.93
2023-03-15T07:04:48.779Z,62.63
2023-03-15T07:07:16.943Z,64.67
2023-03-15T07:09:44.761Z,63.20
2023-03-15T07:12:12.668Z,60.60
2023-03-15T07:14:41.610Z,56.77
2023-03-15T07:17:09.409Z,51.27
2023-03-15T07:19:41.457Z,52.33
2023-03-15T07:22:14.510Z,52.97
2023-03-15T07:24:42.075Z,47.60
2023-03-15T07:27:15.338Z,49.13
2023-03-15T07:29:45.110Z,48.67
2023-03-15T07:32:12.738Z,49.57
2023-03-15T07:34:40.517Z,41.43
2023-03-15T07:37:08.282Z,35.53
2023-03-15T07:39:35.930Z,32.60
2023-03-15T07:42:03.773Z,32.17
2023-03-15T07:44:31.382Z,31.90
2023-03-15T07:47:00.655Z,31.60
2023-03-15T07:49:28.809Z,32.80
2023-03-15T07:51:56.418Z,31.97
2023-03-15T07:54:24.078Z,33.87
2023-03-15T07:56:51.669Z,33.13
2023-03-15T07:59:19.268Z,32.27
2023-03-15T08:01:46.854Z,33.00
2023-03-15T08:04:15.789Z,33.20
2023-03-15T08:06:43.416Z,33.80
2023-03-15T08:09:11.994Z,32.37
2023-03-15T08:11:39.656Z,32.63
2023-03-15T08:14:07.256Z,31.00
2023-03-15T08:16:34.891Z,32.30
2023-03-15T08:19:02.543Z,30.70
2023-03-15T08:21:33.566Z,30.90
2023-03-15T08:24:01.852Z,31.70
2023-03-15T08:26:29.570Z,30.20
2023-03-15T08:28:57.154Z,27.73
2023-03-15T08:31:24.840Z,27.40
2023-03-15T08:33:52.563Z,27.93
2023-03-15T08:36:21.174Z,28.57
2023-03-15T08:38:50.226Z,29.20
2023-03-15T08:41:17.874Z,29.03
2023-03-15T08:43:45.462Z,30.00
2023-03-15T08:46:13.094Z,28.73
2023-03-15T08:48:41.033Z,28.57
2023-03-15T08:51:09.843Z,29.27
2023-03-15T08:53:38.348Z,28.97
2023-03-15T08:56:07.589Z,28.40
2023-03-15T08:58:35.848Z,27.13
2023-03-15T09:01:04.850Z,29.60
2023-03-15T09:03:33.226Z,28.97
2023-03-15T09:06:01.454Z,28.70
2023-03-15T09:08:29.241Z,28.03
2023-03-15T09:10:57.336Z,28.40
2023-03-15T09:13:27.676Z,27.13
2023-03-15T09:15:57.163Z,29.13
2023-03-15T09:18:25.570Z,29.90
2023-03-15T09:20:53.391Z,28.70
2023-03-15T09:23:21.100Z,29.07
2023-03-15T09:25:48.704Z,26.97
2023-03-15T09:28:16.299Z,26.13
2023-03-15T09:30:45.279Z,27.00
2023-03-15T09:33:14.635Z,26.87
2023-03-15T09:35:42.507Z,27.20
2023-03-15T09:38:10.431Z,28.03
2023-03-15T09:40:41.211Z,28.83
2023-03-15T09:43:23.592Z,27.63
2023-03-15T09:46:11.928Z,28.53
2023-03-15T09:48:49.985Z,27.40
2023-03-15T09:51:35.399Z,28.80
2023-03-15T09:54:06.559Z,27.33
2023-03-15T09:56:37.569Z,29.27
2023-03-15T09:59:06.784Z,28.00
2023-03-15T10:01:38.097Z,27.40
2023-03-15T10:04:12.193Z,28.03
2023-03-15T10:06:46.017Z,27.30
2023-03-15T10:09:18.734Z,26.30
2023-03-15T10:11:56.048Z,25.67
2023-03-15T10:14:34.445Z,26.40
2023-03-15T10:17:06.200Z,26.87
2023-03-15T10:19:45.761Z,26.13
2023-03-15T10:22:21.690Z,26.87
2023-03-15T10:24:54.443Z,25.97
2023-03-15T10:27:23.866Z,26.10
2023-03-15T10:29:55.797Z,26.40
2023-03-15T10:32:29.232Z,26.40
2023-03-15T10:34:59.349Z,25.90
2023-03-15T10:37:27.644Z,24.43
2023-03-15T10:39:57.582Z,24.90
2023-03-15T10:42:30.687Z,24.93
2023-03-15T10:44:58.867Z,26.07
2023-03-15T10:47:28.738Z,27.77
2023-03-15T10:49:58.817Z,30.40
2023-03-15T10:52:35.620Z,33.77
2023-03-15T10:55:07.542Z,30.00
2023-03-15T10:57:38.950Z,29.87
2023-03-15T11:00:20.384Z,29.63
2023-03-15T11:02:52.859Z,29.67
2023-03-15T11:05:21.472Z,29.40
2023-03-15T11:07:56.536Z,28.00
2023-03-15T11:10:25.612Z,29.07
2023-03-15T11:13:11.690Z,27.80
2023-03-15T11:15:40.119Z,27.83
2023-03-15T11:18:19.031Z,26.70
2023-03-15T11:20:46.731Z,27.30
2023-03-15T11:23:17.398Z,26.20
2023-03-15T11:25:45.833Z,26.27
2023-03-15T11:28:18.978Z,26.80
2023-03-15T11:30:48.701Z,26.10
2023-03-15T11:33:33.554Z,26.27
2023-03-15T11:36:05.076Z,25.17
2023-03-15T11:38:36.213Z,24.17
2023-03-15T11:41:11.972Z,26.10
2023-03-15T11:43:50.429Z,22.03
2023-03-15T11:46:25.748Z,21.20
2023-03-15T11:49:00.620Z,20.77
2023-03-15T11:51:30.240Z,21.10
2023-03-15T11:54:08.105Z,20.30
2023-03-15T11:57:04.090Z,18.50
2023-03-15T11:59:33.559Z,17.33
2023-03-15T12:02:22.453Z,18.67
2023-03-15T12:04:52.249Z,21.23
2023-03-15T12:07:39.121Z,21.77
2023-03-15T12:10:37.082Z,23.13
2023-03-15T12:13:18.442Z,23.93
2023-03-15T12:15:49.166Z,22.77
2023-03-15T12:18:28.366Z,21.73
2023-03-15T12:21:09.844Z,23.13
2023-03-15T12:23:44.322Z,22.83
2023-03-15T12:26:24.859Z,25.17
2023-03-15T12:28:54.510Z,25.30
2023-03-15T12:31:23.024Z,25.63
2023-03-15T12:33:52.834Z,26.50
2023-03-15T12:36:33.314Z,25.80
2023-03-15T12:39:20.776Z,25.73
2023-03-15T12:41:49.884Z,25.37
2023-03-15T12:44:26.509Z,27.47
2023-03-15T12:46:56.398Z,25.23
2023-03-15T12:49:36.324Z,24.20
2023-03-15T12:52:07.907Z,23.60
2023-03-15T12:54:43.230Z,23.30
2023-03-15T12:57:14.080Z,22.87
2023-03-15T12:59:49.030Z,23.70
2023-03-15T13:02:39.566Z,22.70
2023-03-15T13:05:23.974Z,21.30
2023-03-15T13:08:06.245Z,20.30
2023-03-15T13:10:40.378Z,22.80
2023-03-15T13:13:22.338Z,20.60
2023-03-15T13:16:03.589Z,21.83
2023-03-15T13:18:35.063Z,21.23
2023-03-15T13:21:14.956Z,22.20
2023-03-15T13:23:51.891Z,22.03
2023-03-15T13:26:33.207Z,20.90
2023-03-15T13:29:06.296Z,21.20
2023-03-15T13:31:34.788Z,21.03
2023-03-15T13:34:13.549Z,20.80
2023-03-15T13:36:44.960Z,22.40
2023-03-15T13:39:23.081Z,20.93
2023-03-15T13:41:51.216Z,19.80
2023-03-15T13:44:21.562Z,19.50
2023-03-15T13:46:51.681Z,19.90
2023-03-15T13:49:20.322Z,19.00
2023-03-15T13:51:49.836Z,20.07
2023-03-15T13:54:21.893Z,19.63
2023-03-15T13:57:03.394Z,20.57
2023-03-15T13:59:35.242Z,19.43
2023-03-15T14:02:05.852Z,18.70
2023-03-15T14:04:38.549Z,19.60
2023-03-15T14:07:28.988Z,18.13
2023-03-15T14:10:27.055Z,18.87
2023-03-15T14:12:55.764Z,19.70
2023-03-15T14:15:27.213Z,18.70
2023-03-15T14:18:00.663Z,18.43
2023-03-15T14:20:33.550Z,19.73
2023-03-15T14:23:02.347Z,20.07
2023-03-15T14:25:36.202Z,18.20
2023-03-15T14:28:05.194Z,17.83
2023-03-15T14:30:37.166Z,19.80
2023-03-15T14:33:07.551Z,19.20
2023-03-15T14:35:43.661Z,16.53
2023-03-15T14:38:19.643Z,18.57
2023-03-15T14:40:49.884Z,18.63
2023-03-15T14:43:17.441Z,17.47
2023-03-15T14:45:48.232Z,17.33
2023-03-15T14:48:23.144Z,16.67
2023-03-15T14:50:50.786Z,16.60
2023-03-15T14:53:21.867Z,18.73
2023-03-15T14:55:50.843Z,17.40
2023-03-15T14:58:20.768Z,17.77
2023-03-15T15:00:53.321Z,16.63
2023-03-15T15:03:25.734Z,17.13
2023-03-15T15:05:53.377Z,16.57
2023-03-15T15:08:22.563Z,14.93
2023-03-15T15:10:53.481Z,17.00
2023-03-15T15:13:23.553Z,16.83
2023-03-15T15:15:56.174Z,16.10
2023-03-15T15:18:25.883Z,15.53
2023-03-15T15:20:55.955Z,14.63
2023-03-15T15:23:26.692Z,16.23
2023-03-15T15:25:59.247Z,15.50
2023-03-15T15:28:35.192Z,16.03
2023-03-15T15:31:04.144Z,15.70
2023-03-15T15:33:32.615Z,18.77
2023-03-15T15:36:00.952Z,15.93
2023-03-15T15:38:33.077Z,17.40
2023-03-15T15:41:02.195Z,14.70
2023-03-15T15:43:32.331Z,15.50
2023-03-15T15:46:01.849Z,14.90
2023-03-15T15:48:29.584Z,13.97
2023-03-15T15:50:57.223Z,14.87
2023-03-15T15:53:24.935Z,13.80
2023-03-15T15:55:52.596Z,13.87
2023-03-15T15:58:22.734Z,13.67
2023-03-15T16:00:50.843Z,16.30
2023-03-15T16:03:18.656Z,19.97
2023-03-15T16:05:46.391Z,14.93
2023-03-15T16:08:20.492Z,17.73
2023-03-15T16:10:48.238Z,14.70
2023-03-15T16:13:16.102Z,16.23
2023-03-15T16:15:45.599Z,16.50
2023-03-15T16:18:13.849Z,16.03
2023-03-15T16:20:42.660Z,14.90
2023-03-15T16:23:18.130Z,14.37
2023-03-15T16:25:51.757Z,14.37
2023-03-15T16:28:19.792Z,13.80
2023-03-15T16:30:48.784Z,16.13
2023-03-15T16:33:18.450Z,18.93
2023-03-15T16:35:48.561Z,14.37
2023-03-15T16:38:23.993Z,16.03
2023-03-15T16:40:53.415Z,14.90
2023-03-15T16:43:21.513Z,14.57
2023-03-15T16:45:50.597Z,14.27
2023-03-15T16:48:18.218Z,16.73
2023-03-15T16:50:45.961Z,26.50
2023-03-15T16:53:14.432Z,20.47
2023-03-15T16:55:42.216Z,17.77
2023-03-15T16:58:17.467Z,21.50
2023-03-15T17:00:47.066Z,16.90
2023-03-15T17:03:18.236Z,17.63
2023-03-15T17:05:47.578Z,14.80
2023-03-15T17:08:19.847Z,16.37
2023-03-15T17:10:49.303Z,18.07
2023-03-15T17:13:22.154Z,17.80
2023-03-15T17:15:50.029Z,18.73
2023-03-15T17:18:21.618Z,18.17
2023-03-15T17:20:50.822Z,17.97
2023-03-15T17:23:20.839Z,15.90
2023-03-15T17:25:49.348Z,17.13
2023-03-15T17:28:16.949Z,15.30
2023-03-15T17:30:44.704Z,16.33
2023-03-15T17:33:12.448Z,16.17
2023-03-15T17:35:44.776Z,17.53
2023-03-15T17:38:18.418Z,17.30
2023-03-15T17:40:46.659Z,19.50
2023-03-15T17:43:15.768Z,17.50
2023-03-15T17:45:43.785Z,25.23
2023-03-15T17:48:11.434Z,17.47
2023-03-15T17:50:40.009Z,17.00
2023-03-15T17:53:15.818Z,20.20
2023-03-15T17:55:43.802Z,18.40
2023-03-15T17:58:13.188Z,18.93
2023-03-15T18:00:43.405Z,19.63
2023-03-15T18:03:13.213Z,17.27
2023-03-15T18:05:41.300Z,17.47
2023-03-15T18:08:14.112Z,18.07
2023-03-15T18:10:42.532Z,18.67
2023-03-15T18:13:14.333Z,19.07
2023-03-15T18:15:42.051Z,17.17
2023-03-15T18:18:09.943Z,18.87
2023-03-15T18:20:37.681Z,21.63
2023-03-15T18:23:05.870Z,19.30
2023-03-15T18:25:36.253Z,21.60
2023-03-15T18:28:04.325Z,19.27
2023-03-15T18:30:35.331Z,19.80
2023-03-15T18:33:04.301Z,18.97
2023-03-15T18:35:34.552Z,19.93
2023-03-15T18:38:03.955Z,25.10
2023-03-15T18:40:33.349Z,20.73
2023-03-15T18:43:04.099Z,22.47
2023-03-15T18:45:33.541Z,22.73
2023-03-15T18:48:01.482Z,21.63
2023-03-15T18:50:30.193Z,23.20
2023-03-15T18:52:58.270Z,20.33
2023-03-15T18:55:26.914Z,20.23
2023-03-15T18:57:56.160Z,21.27
2023-03-15T19:00:27.337Z,19.93
2023-03-15T19:02:57.094Z,19.73
2023-03-15T19:05:25.951Z,20.03
2023-03-15T19:07:53.997Z,19.20
2023-03-15T19:10:23.249Z,20.83
2023-03-15T19:12:52.265Z,21.10
2023-03-15T19:15:21.617Z,18.60
2023-03-15T19:17:52.597Z,19.10
2023-03-15T19:20:22.384Z,19.47
2023-03-15T19:22:51.131Z,18.87
2023-03-15T19:25:19.548Z,20.20
2023-03-15T19:27:47.448Z,19.03
2023-03-15T19:30:20.814Z,21.57
2023-03-15T19:32:50.644Z,27.37
2023-03-15T19:35:19.682Z,17.50
2023-03-15T19:37:47.503Z,17.47
2023-03-15T19:40:16.423Z,18.60
2023-03-15T19:42:44.054Z,18.10
2023-03-15T19:45:12.917Z,17.93
2023-03-15T19:47:40.932Z,17.40
2023-03-15T19:50:12.071Z,17.20
2023-03-15T19:52:45.697Z,17.80
2023-03-15T19:55:13.756Z,16.47
2023-03-15T19:57:41.896Z,17.90
2023-03-15T20:00:12.549Z,17.00
2023-03-15T20:02:41.001Z,18.20
2023-03-15T20:05:12.136Z,17.63
2023-03-15T20:07:40.210Z,17.60
2023-03-15T20:10:10.084Z,18.77
2023-03-15T20:12:39.137Z,22.00
2023-03-15T20:15:09.957Z,16.80
2023-03-15T20:17:37.983Z,17.00
2023-03-15T20:20:10.212Z,16.93
2023-03-15T20:22:41.246Z,23.20
2023-03-15T20:25:09.896Z,18.93
2023-03-15T20:27:38.081Z,17.47
2023-03-15T20:30:06.687Z,17.53
2023-03-15T20:32:34.331Z,19.10
2023-03-15T20:35:02.343Z,18.40
2023-03-15T20:37:31.652Z,20.90
2023-03-15T20:40:00.617Z,16.27
2023-03-15T20:42:28.295Z,17.63
2023-03-15T20:44:56.420Z,17.80
2023-03-15T20:47:23.992Z,17.30
2023-03-15T20:49:54.097Z,19.07
2023-03-15T20:52:21.783Z,18.13
2023-03-15T20:54:49.638Z,17.60
2023-03-15T20:57:18.618Z,17.20
2023-03-15T20:59:46.624Z,17.07
2023-03-15T21:02:14.287Z,17.47
2023-03-15T21:04:41.958Z,16.00
2023-03-15T21:07:09.600Z,16.90
2023-03-15T21:09:37.207Z,16.00
2023-03-15T21:12:04.912Z,16.70
2023-03-15T21:14:34.280Z,15.80
2023-03-15T21:17:02.327Z,20.03
2023-03-15T21:19:30.079Z,22.33
2023-03-15T21:21:59.008Z,17.13
2023-03-15T21:24:31.086Z,24.07
2023-03-15T21:26:58.877Z,17.50
2023-03-15T21:29:26.815Z,16.07
2023-03-15T21:31:55.825Z,21.10
2023-03-15T21:34:24.028Z,18.60
2023-03-15T21:36:51.726Z,15.83
2023-03-15T21:39:19.348Z,16.83
2023-03-15T21:41:46.943Z,18.23
2023-03-15T21:44:14.612Z,17.17
2023-03-15T21:46:43.366Z,18.63
2023-03-15T21:49:12.499Z,16.10
2023-03-15T21:51:40.100Z,17.03
2023-03-15T21:54:08.268Z,18.23
2023-03-15T21:56:35.905Z,16.67
2023-03-15T21:59:03.623Z,16.17
2023-03-15T22:01:31.284Z,16.93
2023-03-15T22:03:58.992Z,16.43
2023-03-15T22:06:27.963Z,15.07
2023-03-15T22:08:55.649Z,15.77
2023-03-15T22:11:23.303Z,15.83
2023-03-15T22:13:52.667Z,15.77
2023-03-15T22:16:20.403Z,15.07
2023-03-15T22:18:48.111Z,15.17
2023-03-15T22:21:15.686Z,16.20
2023-03-15T22:23:45.106Z,14.83
2023-03-15T22:26:12.789Z,18.03
2023-03-15T22:28:40.893Z,15.07
2023-03-15T22:31:11.096Z,16.27
2023-03-15T22:33:39.373Z,15.83
2023-03-15T22:36:07.520Z,14.57
2023-03-15T22:38:38.522Z,21.17
2023-03-15T22:41:10.281Z,14.87
2023-03-15T22:43:38.867Z,15.87
2023-03-15T22:46:07.540Z,14.93
2023-03-15T22:48:35.229Z,16.57
2023-03-15T22:51:05.318Z,14.37
2023-03-15T22:53:33.056Z,17.13
2023-03-15T22:56:01.309Z,17.43
2023-03-15T22:58:30.388Z,14.63
2023-03-15T23:00:58.030Z,15.90
2023-03-15T23:03:26.315Z,15.60
2023-03-15T23:05:54.423Z,15.27
2023-03-15T23:08:22.780Z,15.10
2023-03-15T23:10:50.979Z,16.23
2023-03-15T23:13:18.764Z,16.10
2023-03-15T23:15:47.833Z,15.60
2023-03-15T23:18:15.440Z,15.37
2023-03-15T23:20:44.504Z,16.87
2023-03-15T23:23:12.232Z,17.47
2023-03-15T23:25:41.028Z,15.50
2023-03-15T23:28:09.202Z,16.67
2023-03-15T23:30:38.815Z,15.83
2023-03-15T23:33:08.437Z,15.47
2023-03-15T23:35:37.153Z,16.07
2023-03-15T23:38:05.157Z,16.33
2023-03-15T23:40:32.819Z,17.20
2023-03-15T23:43:00.468Z,16.17
2023-03-15T23:45:29.930Z,16.43
2023-03-15T23:47:58.477Z,16.10
2023-03-15T23:50:27.830Z,17.67
2023-03-15T23:52:57.035Z,15.70
2023-03-15T23:55:25.761Z,17.40
2023-03-15T23:57:53.458Z,18.10
